Airfield :
LOGIN :

Register | Disclaimer

   EN    FR    IT 

 










Legend :    VFR   Marginal VFR   IFR   Intensive IFR   Very Intensive IFR
Visi :
Ceiling :
>= 8 km
>= 3000ft
5 to 8 km
1000 to 3000 ft
1500m to 5 km
500 to 1000 ft
800 to 1500m
200 to 500 ft
< 800m
< 200 ft
Symbols :   Thunderstorms  Fog  Heavy snow  Heavy precipitations  Wind > 20 kt
SIGMETs :     Misc.  Thunderstorms  Icing  Turbulence  Mountain Waves  Volcanic Ashes







- Airport Elevation : 433 ft
- IATA code : CCF
- Download approach charts


LFMK - Carcassonne

CURRENT METAR :
  • 190230Z AUTO 20002KT 6000 BKN021 01/00 Q1015 TEMPO 3000 BR

EXPIRED METARs :
  • 190200Z AUTO 00000KT 5000 BR NSC 02/00 Q1016
  • 190130Z AUTO 00000KT 9000 SCT082 03/01 Q1015
  • 190100Z AUTO 20003KT 170V230 9999 BKN084 BKN140 03/02 Q1015
  • 190030Z AUTO 21004KT CAVOK 04/02 Q1016
  • 190000Z AUTO 22003KT CAVOK 04/02 Q1016

TAF TAF LFMK
Valid from the 19 at 03:00 until the 20 at 03:00 UTC


190200Z 1903/2003 24006KT 9999 FEW040
TEMPO 1903/1907 3000 BR
TEMPO 1911/1915 RA
BECMG 1917/1919 09010KT
TEMPO 2000/2003 BKN010 BKN200
No reported NOTAMs for that airfield.



MET'MAP, your aeronautical weather chart ! - Copyright ORBIFLY December 2007 - Disclaimer

ORBIFLY MET'MAP TEAM :

Programming & Development : Alexandra Zaïnal
Concept & Development : Baudouin d'Aumeries
Co-Development & Prog : Marc-Olivier Méhu
Technical & hardware support : Manuel Goepfert

Contact : metmap@orbifly.com




SOURCES & CREDITS :

   NOAA